createdAt,value
2022-09-30T00:01:35.812Z,16.35
2022-09-30T00:04:03.692Z,16.30
2022-09-30T00:06:31.665Z,16.23
2022-09-30T00:08:59.348Z,16.16
2022-09-30T00:11:31.261Z,16.11
2022-09-30T00:13:59.066Z,16.11
2022-09-30T00:16:28.512Z,16.09
2022-09-30T00:18:57.258Z,16.09
2022-09-30T00:21:25.337Z,16.10
2022-09-30T00:23:53.012Z,16.02
2022-09-30T00:26:21.897Z,16.02
2022-09-30T00:28:50.925Z,16.01
2022-09-30T00:31:20.100Z,16.00
2022-09-30T00:34:07.035Z,16.02
2022-09-30T00:36:45.014Z,15.97
2022-09-30T00:39:26.645Z,15.99
2022-09-30T00:41:56.620Z,15.93
2022-09-30T00:44:48.221Z,15.87
2022-09-30T00:47:24.953Z,15.88
2022-09-30T00:49:52.613Z,15.84
2022-09-30T00:52:20.570Z,15.80
2022-09-30T00:54:48.165Z,15.76
2022-09-30T00:57:15.920Z,15.71
2022-09-30T00:59:45.571Z,15.70
2022-09-30T01:02:14.610Z,15.63
2022-09-30T01:04:42.606Z,15.60
2022-09-30T01:07:10.602Z,15.64
2022-09-30T01:09:40.684Z,15.62
2022-09-30T01:12:14.348Z,15.59
2022-09-30T01:14:42.101Z,15.57
2022-09-30T01:17:57.646Z,15.54
2022-09-30T01:20:47.189Z,15.46
2022-09-30T01:23:45.863Z,15.56
2022-09-30T01:26:51.838Z,15.60
2022-09-30T01:29:47.058Z,15.61
2022-09-30T01:32:26.892Z,15.61
2022-09-30T01:35:13.883Z,15.58
2022-09-30T01:38:09.832Z,15.56
2022-09-30T01:40:45.383Z,15.52
2022-09-30T01:43:37.834Z,15.54
2022-09-30T01:46:33.808Z,15.48
2022-09-30T01:49:40.115Z,15.47
2022-09-30T01:52:16.905Z,15.53
2022-09-30T01:54:50.028Z,15.55
2022-09-30T01:57:23.313Z,15.56
2022-09-30T01:59:54.774Z,15.57
2022-09-30T02:02:25.631Z,15.52
2022-09-30T02:04:58.989Z,15.47
2022-09-30T02:07:39.076Z,15.45
2022-09-30T02:10:16.290Z,15.44
2022-09-30T02:12:50.057Z,15.51
2022-09-30T02:15:22.720Z,15.57
2022-09-30T02:17:53.405Z,15.70
2022-09-30T02:20:31.756Z,15.76
2022-09-30T02:23:11.639Z,15.84
2022-09-30T02:25:42.959Z,15.81
2022-09-30T02:28:12.761Z,15.78
2022-09-30T02:30:43.296Z,15.86
2022-09-30T02:33:17.864Z,15.92
2022-09-30T02:35:50.550Z,15.94
2022-09-30T02:38:27.228Z,15.99
2022-09-30T02:41:20.745Z,16.03
2022-09-30T02:43:49.180Z,16.04
2022-09-30T02:46:27.662Z,16.10
2022-09-30T02:49:18.572Z,16.13
2022-09-30T02:52:07.847Z,16.19
2022-09-30T02:54:58.857Z,16.22
2022-09-30T02:57:39.668Z,16.30
2022-09-30T03:00:12.667Z,16.32
2022-09-30T03:02:41.375Z,16.38
2022-09-30T03:05:09.870Z,16.41
2022-09-30T03:07:40.024Z,16.38
2022-09-30T03:10:15.272Z,16.40
2022-09-30T03:13:02.299Z,16.46
2022-09-30T03:15:42.895Z,16.48
2022-09-30T03:18:17.705Z,16.52
2022-09-30T03:21:15.571Z,16.63
2022-09-30T03:23:51.510Z,16.65
2022-09-30T03:26:57.263Z,16.60
2022-09-30T03:29:27.552Z,16.65
2022-09-30T03:31:58.132Z,16.75
2022-09-30T03:34:50.252Z,16.78
2022-09-30T03:37:27.485Z,16.84
2022-09-30T03:39:57.753Z,16.89
2022-09-30T03:42:35.987Z,16.91
2022-09-30T03:45:31.847Z,16.98
2022-09-30T03:48:01.754Z,17.08
2022-09-30T03:50:29.482Z,17.04
2022-09-30T03:52:57.584Z,17.10
2022-09-30T03:55:25.556Z,17.17
2022-09-30T03:57:54.509Z,17.23
2022-09-30T04:00:22.106Z,17.25
2022-09-30T04:02:51.844Z,17.23
2022-09-30T04:05:21.160Z,17.33
2022-09-30T04:07:48.856Z,17.32
2022-09-30T04:10:16.330Z,17.36
2022-09-30T04:12:46.697Z,17.48
2022-09-30T04:15:14.384Z,17.52
2022-09-30T04:17:42.857Z,17.64
2022-09-30T04:20:10.402Z,17.68
2022-09-30T04:22:37.914Z,17.75
2022-09-30T04:25:07.433Z,17.84
2022-09-30T04:27:35.590Z,17.93
2022-09-30T04:30:03.643Z,17.96
2022-09-30T04:32:31.714Z,17.90
2022-09-30T04:34:59.303Z,17.95
2022-09-30T04:37:26.850Z,18.03
2022-09-30T04:39:54.454Z,17.98
2022-09-30T04:42:21.923Z,17.98
2022-09-30T04:44:49.450Z,17.94
2022-09-30T04:47:17.039Z,17.96
2022-09-30T04:49:44.539Z,17.91
2022-09-30T04:52:12.240Z,17.91
2022-09-30T04:54:39.834Z,17.90
2022-09-30T04:57:07.471Z,17.90
2022-09-30T04:59:35.189Z,17.98
2022-09-30T05:02:06.162Z,17.99
2022-09-30T05:04:34.133Z,17.97
2022-09-30T05:07:02.217Z,18.06
2022-09-30T05:09:30.066Z,18.08
2022-09-30T05:11:57.572Z,18.00
2022-09-30T05:14:25.364Z,17.99
2022-09-30T05:16:52.839Z,18.08
2022-09-30T05:19:20.515Z,18.11
2022-09-30T05:21:48.121Z,18.05
2022-09-30T05:24:17.960Z,18.13
2022-09-30T05:26:45.547Z,18.16
2022-09-30T05:29:13.521Z,18.22
2022-09-30T05:31:42.671Z,18.12
2022-09-30T05:34:10.837Z,18.13
2022-09-30T05:36:38.417Z,18.16
2022-09-30T05:39:06.065Z,18.19
2022-09-30T05:41:33.569Z,18.21
2022-09-30T05:44:01.468Z,18.18
2022-09-30T05:46:29.006Z,18.21
2022-09-30T05:48:57.362Z,18.20
2022-09-30T05:51:24.967Z,18.21
2022-09-30T05:53:52.572Z,18.13
2022-09-30T05:56:20.460Z,18.16
2022-09-30T05:58:48.132Z,18.15
2022-09-30T06:01:15.816Z,18.16
2022-09-30T06:03:43.804Z,18.21
2022-09-30T06:06:11.723Z,18.18
2022-09-30T06:08:40.434Z,18.22
2022-09-30T06:11:17.216Z,18.26
2022-09-30T06:13:47.595Z,18.28
2022-09-30T06:16:16.034Z,18.30
2022-09-30T06:18:43.971Z,18.32
2022-09-30T06:21:13.386Z,18.31
2022-09-30T06:23:41.161Z,18.36
2022-09-30T06:26:09.310Z,18.31
2022-09-30T06:28:37.337Z,18.30
2022-09-30T06:31:05.418Z,18.22
2022-09-30T06:33:33.648Z,18.15
2022-09-30T06:36:04.669Z,18.21
2022-09-30T06:38:32.980Z,18.24
2022-09-30T06:41:00.842Z,18.32
2022-09-30T06:43:28.627Z,18.34
2022-09-30T06:46:06.611Z,18.37
2022-09-30T06:48:40.722Z,18.42
2022-09-30T06:51:10.984Z,18.42
2022-09-30T06:53:39.939Z,18.48
2022-09-30T06:56:07.447Z,18.49
2022-09-30T06:58:35.485Z,18.44
2022-09-30T07:01:06.481Z,18.50
2022-09-30T07:03:35.011Z,18.55
2022-09-30T07:06:04.210Z,18.59
2022-09-30T07:08:32.986Z,18.65
2022-09-30T07:11:04.402Z,18.74
2022-09-30T07:13:33.451Z,18.81
2022-09-30T07:16:01.466Z,18.96
2022-09-30T07:18:29.438Z,19.12
2022-09-30T07:20:57.205Z,19.24
2022-09-30T07:23:27.146Z,19.39
2022-09-30T07:26:03.465Z,19.49
2022-09-30T07:28:33.341Z,19.46
2022-09-30T07:31:31.478Z,19.65
2022-09-30T07:33:56.836Z,19.65
2022-09-30T07:36:33.013Z,19.53
2022-09-30T07:39:05.671Z,19.58
2022-09-30T07:41:36.703Z,19.61
2022-09-30T07:44:06.615Z,19.74
2022-09-30T07:46:34.976Z,19.68
2022-09-30T07:49:05.725Z,19.87
2022-09-30T07:51:35.490Z,19.97
2022-09-30T07:54:14.969Z,20.21
2022-09-30T07:57:10.244Z,20.44
2022-09-30T07:59:32.662Z,20.40
2022-09-30T08:02:01.205Z,20.11
2022-09-30T08:04:28.934Z,20.34
2022-09-30T08:07:00.138Z,20.49
2022-09-30T08:09:29.175Z,20.67
2022-09-30T08:11:57.116Z,20.68
2022-09-30T08:14:26.309Z,20.86
2022-09-30T08:16:54.118Z,20.87
2022-09-30T08:19:22.779Z,20.63
2022-09-30T08:21:51.562Z,20.76
2022-09-30T08:24:19.703Z,20.81
2022-09-30T08:26:47.371Z,20.83
2022-09-30T08:29:20.338Z,20.84
2022-09-30T08:31:48.495Z,20.84
2022-09-30T08:34:16.155Z,20.81
2022-09-30T08:36:43.832Z,20.68
2022-09-30T08:39:11.482Z,20.74
2022-09-30T08:41:39.376Z,20.60
2022-09-30T08:44:40.856Z,20.65
2022-09-30T08:47:14.209Z,20.35
2022-09-30T08:50:05.421Z,20.13
2022-09-30T08:52:48.455Z,19.86
2022-09-30T08:55:29.284Z,19.78
2022-09-30T08:57:57.165Z,19.68
2022-09-30T09:00:25.249Z,19.55
2022-09-30T09:02:59.984Z,19.31
2022-09-30T09:06:06.181Z,19.25
2022-09-30T09:08:52.259Z,19.26
2022-09-30T09:11:43.558Z,19.13
2022-09-30T09:14:31.656Z,19.02
2022-09-30T09:17:10.646Z,18.88
2022-09-30T09:19:46.048Z,18.48
2022-09-30T09:22:14.034Z,18.44
2022-09-30T09:24:46.309Z,18.07
2022-09-30T09:27:40.469Z,17.73
2022-09-30T09:30:12.764Z,17.58
2022-09-30T09:32:40.682Z,17.59
2022-09-30T09:35:38.672Z,17.57
2022-09-30T09:38:29.200Z,17.54
2022-09-30T09:41:33.511Z,17.55
2022-09-30T09:44:39.169Z,17.48
2022-09-30T09:47:15.332Z,17.43
2022-09-30T09:49:55.336Z,17.44
2022-09-30T09:52:40.881Z,17.45
2022-09-30T09:55:11.402Z,17.45
2022-09-30T09:57:40.453Z,17.49
2022-09-30T10:00:31.806Z,17.49
2022-09-30T10:03:00.741Z,17.45
2022-09-30T10:05:30.309Z,17.49
2022-09-30T10:08:16.545Z,17.51
2022-09-30T10:10:56.301Z,17.58
2022-09-30T10:13:43.444Z,17.58
2022-09-30T10:16:28.269Z,17.61
2022-09-30T10:18:56.348Z,17.65
2022-09-30T10:21:25.397Z,17.70
2022-09-30T10:23:53.077Z,17.77
2022-09-30T10:28:57.261Z,17.95
2022-09-30T10:31:30.803Z,18.05
2022-09-30T10:34:20.612Z,18.25
2022-09-30T10:36:48.372Z,18.39
2022-09-30T10:39:19.648Z,18.59
2022-09-30T10:41:47.229Z,18.69
2022-09-30T10:44:17.409Z,18.92
2022-09-30T10:46:46.083Z,19.12
2022-09-30T10:49:37.327Z,19.41
2022-09-30T10:52:04.935Z,19.59
2022-09-30T10:54:36.347Z,19.70
2022-09-30T10:57:33.687Z,19.86
2022-09-30T11:00:19.699Z,20.03
2022-09-30T11:02:59.422Z,20.12
2022-09-30T11:05:33.466Z,20.23
2022-09-30T11:08:03.177Z,20.31
2022-09-30T11:10:54.466Z,20.41
2022-09-30T11:13:36.857Z,20.52
2022-09-30T11:16:21.783Z,20.78
2022-09-30T11:18:54.325Z,20.94
2022-09-30T11:21:33.980Z,21.13
2022-09-30T11:24:14.132Z,21.32
2022-09-30T11:26:43.750Z,21.57
2022-09-30T11:29:45.111Z,21.91
2022-09-30T11:32:15.758Z,22.21
2022-09-30T11:34:55.308Z,22.50
2022-09-30T11:37:28.681Z,22.68
2022-09-30T11:40:08.605Z,22.97
2022-09-30T11:42:44.781Z,23.24
2022-09-30T11:45:21.953Z,23.24
2022-09-30T11:47:58.450Z,23.29
2022-09-30T11:50:41.129Z,23.66
2022-09-30T11:53:17.780Z,24.02
2022-09-30T11:56:01.505Z,24.32
2022-09-30T11:58:41.459Z,24.50
2022-09-30T12:01:09.716Z,24.82
2022-09-30T12:03:40.633Z,25.06
2022-09-30T12:06:41.619Z,25.35
2022-09-30T12:09:17.038Z,25.43
2022-09-30T12:11:45.791Z,25.31
2022-09-30T12:14:23.077Z,25.65
2022-09-30T12:16:51.692Z,25.75
2022-09-30T12:19:35.322Z,26.19
2022-09-30T12:22:28.705Z,26.00
2022-09-30T12:24:56.438Z,26.59
2022-09-30T12:27:35.022Z,26.98
2022-09-30T12:30:17.900Z,27.27
2022-09-30T12:33:13.363Z,27.03
2022-09-30T12:35:52.406Z,27.35
2022-09-30T12:38:38.832Z,27.44
2022-09-30T12:41:18.918Z,27.24
2022-09-30T12:43:58.478Z,27.60
2022-09-30T12:46:47.393Z,27.49
2022-09-30T12:49:20.155Z,27.37
2022-09-30T12:51:53.742Z,27.32
2022-09-30T12:54:25.874Z,26.84
2022-09-30T12:57:00.652Z,26.37
2022-09-30T12:59:33.030Z,25.82
2022-09-30T13:02:01.384Z,25.75
2022-09-30T13:04:39.406Z,25.68
2022-09-30T13:07:11.287Z,25.23
2022-09-30T13:09:59.162Z,25.08
2022-09-30T13:12:40.904Z,24.77
2022-09-30T13:15:42.009Z,24.71
2022-09-30T13:18:27.008Z,24.31
2022-09-30T13:21:18.981Z,24.23
2022-09-30T13:23:54.343Z,24.29
2022-09-30T13:26:41.871Z,24.40
2022-09-30T13:29:16.308Z,24.73
2022-09-30T13:31:50.030Z,25.19
2022-09-30T13:34:23.498Z,25.65
2022-09-30T13:36:51.131Z,26.01
2022-09-30T13:39:29.992Z,26.54
2022-09-30T13:42:00.485Z,26.88
2022-09-30T13:44:36.378Z,27.22
2022-09-30T13:47:19.531Z,27.49
2022-09-30T13:50:10.234Z,27.90
2022-09-30T13:52:38.411Z,28.19
2022-09-30T13:55:20.431Z,28.43
2022-09-30T13:58:08.098Z,28.22
2022-09-30T14:01:19.246Z,28.22
2022-09-30T14:04:02.462Z,27.98
2022-09-30T14:07:03.686Z,27.96
2022-09-30T14:10:09.275Z,28.28
2022-09-30T14:12:53.649Z,28.11
2022-09-30T14:15:38.954Z,27.83
2022-09-30T14:18:25.104Z,27.71
2022-09-30T14:21:05.493Z,27.54
2022-09-30T14:23:33.033Z,27.58
2022-09-30T14:26:24.962Z,27.05
2022-09-30T14:29:04.329Z,26.98
2022-09-30T14:31:32.443Z,26.53
2022-09-30T14:34:00.038Z,26.72
2022-09-30T14:36:27.668Z,26.47
2022-09-30T14:38:58.982Z,25.96
2022-09-30T14:41:26.667Z,25.34
2022-09-30T14:43:56.960Z,24.96
2022-09-30T14:46:41.234Z,24.59
2022-09-30T14:49:12.011Z,24.27
2022-09-30T14:51:44.814Z,24.02
2022-09-30T14:54:26.648Z,23.70
2022-09-30T14:56:57.313Z,23.41
2022-09-30T14:59:27.818Z,23.14
2022-09-30T15:02:01.233Z,22.93
2022-09-30T15:04:39.275Z,22.67
2022-09-30T15:07:11.787Z,22.51
2022-09-30T15:09:42.326Z,22.39
2022-09-30T15:12:18.603Z,22.23
2022-09-30T15:15:25.723Z,22.04
2022-09-30T15:17:55.608Z,21.81
2022-09-30T15:20:32.554Z,21.75
2022-09-30T15:23:04.464Z,21.55
2022-09-30T15:25:32.160Z,21.39
2022-09-30T15:28:00.096Z,21.33
2022-09-30T15:30:29.393Z,21.28
2022-09-30T15:33:00.855Z,21.14
2022-09-30T15:35:28.807Z,21.00
2022-09-30T15:38:09.940Z,20.87
2022-09-30T15:40:46.271Z,20.77
2022-09-30T15:43:17.345Z,20.65
2022-09-30T15:45:46.110Z,20.54
2022-09-30T15:48:13.687Z,20.43
2022-09-30T15:50:45.970Z,20.38
2022-09-30T15:53:25.483Z,20.29
2022-09-30T15:55:55.768Z,20.20
2022-09-30T15:58:29.794Z,20.09
2022-09-30T16:01:11.048Z,19.99
2022-09-30T16:03:38.720Z,19.86
2022-09-30T16:06:11.197Z,19.79
2022-09-30T16:08:47.209Z,19.73
2022-09-30T16:11:20.679Z,19.68
2022-09-30T16:13:49.440Z,19.60
2022-09-30T16:16:21.815Z,19.54
2022-09-30T16:18:50.109Z,19.42
2022-09-30T16:21:50.765Z,19.33
2022-09-30T16:24:21.362Z,19.26
2022-09-30T16:26:50.055Z,19.19
2022-09-30T16:29:18.077Z,19.14
2022-09-30T16:31:46.298Z,19.02
2022-09-30T16:34:27.644Z,19.03
2022-09-30T16:37:04.146Z,19.01
2022-09-30T16:39:31.761Z,19.00
2022-09-30T16:41:59.540Z,18.99
2022-09-30T16:44:27.071Z,18.98
2022-09-30T16:46:54.707Z,18.92
2022-09-30T16:49:22.252Z,18.88
2022-09-30T16:51:50.472Z,18.85
2022-09-30T16:54:18.054Z,18.83
2022-09-30T16:56:48.119Z,18.82
2022-09-30T16:59:17.519Z,18.79
2022-09-30T17:01:45.583Z,18.74
2022-09-30T17:04:15.384Z,18.67
2022-09-30T17:06:46.241Z,18.61
2022-09-30T17:09:13.847Z,18.60
2022-09-30T17:11:42.955Z,18.55
2022-09-30T17:14:10.475Z,18.50
2022-09-30T17:16:38.244Z,18.45
2022-09-30T17:19:06.305Z,18.40
2022-09-30T17:21:33.936Z,18.32
2022-09-30T17:24:01.779Z,18.24
2022-09-30T17:26:29.639Z,18.16
2022-09-30T17:29:14.676Z,18.08
2022-09-30T17:31:46.944Z,18.06
2022-09-30T17:34:16.683Z,18.03
2022-09-30T17:36:44.359Z,17.98
2022-09-30T17:39:12.077Z,17.92
2022-09-30T17:41:58.993Z,17.90
2022-09-30T17:44:26.654Z,17.88
2022-09-30T17:47:00.670Z,17.90
2022-09-30T17:49:33.275Z,17.90
2022-09-30T17:52:01.254Z,17.90
2022-09-30T17:54:29.110Z,17.90
2022-09-30T17:56:57.411Z,17.92
2022-09-30T17:59:27.045Z,17.97
2022-09-30T18:01:56.571Z,17.99
2022-09-30T18:04:26.218Z,18.02
2022-09-30T18:06:54.425Z,18.06
2022-09-30T18:09:22.708Z,18.06
2022-09-30T18:11:53.474Z,18.04
2022-09-30T18:14:21.128Z,18.03
2022-09-30T18:16:49.717Z,17.97
2022-09-30T18:19:17.466Z,17.97
2022-09-30T18:21:45.052Z,18.00
2022-09-30T18:24:12.938Z,18.04
2022-09-30T18:26:40.524Z,18.09
2022-09-30T18:29:08.953Z,18.13
2022-09-30T18:31:38.622Z,18.22
2022-09-30T18:34:06.782Z,18.33
2022-09-30T18:36:37.486Z,18.42
2022-09-30T18:39:05.279Z,18.47
2022-09-30T18:41:35.820Z,18.55
2022-09-30T18:44:04.090Z,18.63
2022-09-30T18:46:31.799Z,18.70
2022-09-30T18:48:59.551Z,18.80
2022-09-30T18:51:27.118Z,18.91
2022-09-30T18:53:58.964Z,18.98
2022-09-30T18:56:32.052Z,19.02
2022-09-30T18:59:01.187Z,19.03
2022-09-30T19:01:29.143Z,19.14
2022-09-30T19:03:56.940Z,19.16
2022-09-30T19:06:24.535Z,19.21
2022-09-30T19:08:52.092Z,19.29
2022-09-30T19:11:19.665Z,19.40
2022-09-30T19:13:48.132Z,19.40
2022-09-30T19:16:18.788Z,19.36
2022-09-30T19:18:46.924Z,19.38
2022-09-30T19:21:17.890Z,19.34
2022-09-30T19:23:46.066Z,19.27
2022-09-30T19:26:15.632Z,19.25
2022-09-30T19:28:43.160Z,19.23
2022-09-30T19:31:12.580Z,19.23
2022-09-30T19:33:51.565Z,19.23
2022-09-30T19:36:23.438Z,19.12
2022-09-30T19:38:54.418Z,19.08
2022-09-30T19:41:30.877Z,19.01
2022-09-30T19:44:02.228Z,18.92
2022-09-30T19:46:30.342Z,18.84
2022-09-30T19:48:58.265Z,18.86
2022-09-30T19:51:28.275Z,18.74
2022-09-30T19:54:04.597Z,18.70
2022-09-30T19:56:35.508Z,18.73
2022-09-30T19:59:03.291Z,18.67
2022-09-30T20:01:31.641Z,18.66
2022-09-30T20:04:00.343Z,18.64
2022-09-30T20:06:28.274Z,18.62
2022-09-30T20:09:00.421Z,18.59
2022-09-30T20:11:30.144Z,18.56
2022-09-30T20:14:16.735Z,18.58
2022-09-30T20:16:44.822Z,18.54
2022-09-30T20:19:12.464Z,18.55
2022-09-30T20:21:43.440Z,18.55
2022-09-30T20:24:12.419Z,18.48
2022-09-30T20:26:41.036Z,18.47
2022-09-30T20:29:08.998Z,18.42
2022-09-30T20:31:38.036Z,18.44
2022-09-30T20:34:05.704Z,18.40
2022-09-30T20:36:35.030Z,18.38
2022-09-30T20:39:03.295Z,18.34
2022-09-30T20:41:35.820Z,18.33
2022-09-30T20:44:08.563Z,18.30
2022-09-30T20:46:36.196Z,18.29
2022-09-30T20:49:04.308Z,18.27
2022-09-30T20:51:32.490Z,18.27
2022-09-30T20:54:00.551Z,18.26
2022-09-30T20:56:39.379Z,18.23
2022-09-30T20:59:17.298Z,18.19
2022-09-30T21:01:44.922Z,18.16
2022-09-30T21:04:12.525Z,18.17
2022-09-30T21:06:40.126Z,18.16
2022-09-30T21:09:07.700Z,18.15
2022-09-30T21:11:41.098Z,18.12
2022-09-30T21:14:09.533Z,18.11
2022-09-30T21:16:37.344Z,18.07
2022-09-30T21:19:05.659Z,18.08
2022-09-30T21:21:33.404Z,18.06
2022-09-30T21:24:01.641Z,18.04
2022-09-30T21:26:30.109Z,18.02
2022-09-30T21:28:57.779Z,17.95
2022-09-30T21:31:29.278Z,17.97
2022-09-30T21:33:58.717Z,17.93
2022-09-30T21:36:27.244Z,17.94
2022-09-30T21:38:55.106Z,17.90
2022-09-30T21:41:22.969Z,17.88
2022-09-30T21:43:53.107Z,17.87
2022-09-30T21:46:20.718Z,17.87
2022-09-30T21:48:48.345Z,17.83
2022-09-30T21:51:16.917Z,17.82
2022-09-30T21:53:44.558Z,17.81
2022-09-30T21:56:12.399Z,17.76
2022-09-30T21:58:41.221Z,17.79
2022-09-30T22:01:08.824Z,17.73
2022-09-30T22:03:39.494Z,17.72
2022-09-30T22:06:08.161Z,17.67
2022-09-30T22:08:40.939Z,17.64
2022-09-30T22:11:11.353Z,17.63
2022-09-30T22:13:47.343Z,17.62
2022-09-30T22:16:20.018Z,17.61
2022-09-30T22:18:47.587Z,17.60
2022-09-30T22:21:15.212Z,17.59
2022-09-30T22:23:43.972Z,17.56
2022-09-30T22:26:18.740Z,17.55
2022-09-30T22:28:46.874Z,17.49
2022-09-30T22:31:19.619Z,17.49
2022-09-30T22:34:10.713Z,17.45
2022-09-30T22:36:56.807Z,17.42
2022-09-30T22:39:24.533Z,17.38
2022-09-30T22:41:55.594Z,17.36
2022-09-30T22:44:28.224Z,17.30
2022-09-30T22:46:56.249Z,17.28
2022-09-30T22:49:24.584Z,17.24
2022-09-30T22:51:53.076Z,17.23
2022-09-30T22:54:20.722Z,17.20
2022-09-30T22:56:51.689Z,17.16
2022-09-30T22:59:20.943Z,17.10
2022-09-30T23:01:49.308Z,17.05
2022-09-30T23:04:17.632Z,17.02
2022-09-30T23:06:48.466Z,16.99
2022-09-30T23:09:16.879Z,16.94
2022-09-30T23:11:45.422Z,16.91
2022-09-30T23:14:13.235Z,16.88
2022-09-30T23:16:40.950Z,16.84
2022-09-30T23:19:08.641Z,16.79
2022-09-30T23:21:36.559Z,16.70
2022-09-30T23:24:04.726Z,16.58
2022-09-30T23:26:32.775Z,16.51
2022-09-30T23:29:27.207Z,16.40
2022-09-30T23:31:55.421Z,16.26
2022-09-30T23:34:22.994Z,16.26
2022-09-30T23:36:50.779Z,16.16
2022-09-30T23:39:21.621Z,16.34
2022-09-30T23:41:50.870Z,16.24
2022-09-30T23:44:19.170Z,16.10
2022-09-30T23:47:05.872Z,16.01
2022-09-30T23:49:36.000Z,15.93
2022-09-30T23:52:12.000Z,16.07
2022-09-30T23:54:42.053Z,16.25
2022-09-30T23:57:10.792Z,16.35
2022-09-30T23:59:38.768Z,16.46
